Time;durP1;ratioP1;P1;durP2;ratioP2;P2;SDS_P1;SDS_P2;PMS_P1;PMS_P2;Temp;Humidity;BMP_temperature;BMP_pressure;BME280_temperature;BME280_humidity;BME280_pressure;Samples;Min_cycle;Max_cycle;Signal;HPM_P1;HPM_P2
2021/09/06 00:17:15;;;;;;;7.95;6.40;;;;;;;20.84;56.47;102402.16;4903900;29;20032;-89
2021/09/06 00:31:05;;;;;;;8.63;6.45;;;;;;;20.84;56.39;102396.91;4977307;29;20153;-89
2021/09/06 01:05:05;;;;;;;8.35;6.55;;;;;;;20.82;56.40;102396.88;4896167;29;20077;-90
2021/09/06 01:35:41;;;;;;;7.53;6.35;;;;;;;20.81;56.40;102395.13;4951748;29;20093;-91
2021/09/06 02:06:00;;;;;;;6.60;5.90;;;;;;;20.69;56.37;102373.97;4960779;28;21325;-93
2021/09/06 03:00:43;;;;;;;7.82;6.15;;;;;;;20.72;56.48;102388.91;4992134;28;20037;-89
2021/09/06 03:10:23;;;;;;;6.82;5.93;;;;;;;20.47;56.37;102354.47;4865691;29;20098;-89
2021/09/06 03:35:58;;;;;;;7.30;6.35;;;;;;;20.65;56.36;102387.94;4947551;28;20083;-89
2021/09/06 04:29:21;;;;;;;7.43;6.70;;;;;;;20.74;56.39;102395.94;5016131;28;20049;-93
2021/09/06 04:38:16;;;;;;;7.68;6.10;;;;;;;20.52;56.53;102370.28;4991109;28;20591;-88
2021/09/06 04:40:42;;;;;;;7.55;6.75;;;;;;;20.67;56.65;102391.47;5003292;28;20033;-81
2021/09/06 04:43:07;;;;;;;8.32;6.15;;;;;;;20.62;56.73;102394.06;4988115;28;20034;-82
2021/09/06 04:45:33;;;;;;;7.63;6.32;;;;;;;20.54;56.72;102373.81;5003126;28;20042;-83
2021/09/06 04:47:59;;;;;;;7.47;6.15;;;;;;;20.62;57.20;102390.56;5008249;28;20050;-79
2021/09/06 04:50:25;;;;;;;8.25;6.60;;;;;;;20.78;56.84;102417.88;4999389;28;20396;-79
2021/09/06 04:52:53;;;;;;;7.38;5.97;;;;;;;20.77;56.46;102411.75;4982766;28;20045;-80
2021/09/06 04:55:18;;;;;;;7.75;6.95;;;;;;;20.65;56.72;102393.19;4965900;28;20053;-81
2021/09/06 04:57:43;;;;;;;7.25;6.32;;;;;;;20.61;56.12;102400.19;4983918;28;20029;-84
2021/09/06 05:00:09;;;;;;;8.52;7.65;;;;;;;20.63;55.80;102402.84;4967258;28;20029;-87
2021/09/06 05:02:39;;;;;;;8.07;6.57;;;;;;;20.52;56.16;102381.66;4984410;28;20153;-86
2021/09/06 05:08:26;;;;;;;8.18;6.47;;;;;;;20.58;56.03;102392.28;5029132;28;20044;-81
2021/09/06 05:10:55;;;;;;;14.90;10.82;;;;;;;20.26;53.77;102404.09;4986511;28;20029;-81
2021/09/06 05:13:22;;;;;;;16.75;13.05;;;;;;;19.84;54.14;102428.94;5022964;28;20386;-81
2021/09/06 05:15:47;;;;;;;15.15;11.82;;;;;;;19.35;54.67;102432.50;5040291;28;20481;-85
2021/09/06 05:18:13;;;;;;;20.00;12.82;;;;;;;18.84;55.68;102411.47;5040301;28;20033;-83
2021/09/06 05:21:17;;;;;;;16.67;10.75;;;;;;;19.19;55.69;102436.63;5007683;28;20085;-90
2021/09/06 05:23:43;;;;;;;15.43;12.32;;;;;;;19.64;54.72;102419.88;5046579;28;20036;-75
2021/09/06 05:26:09;;;;;;;16.42;10.13;;;;;;;19.90;54.16;102415.88;5037498;28;20044;-79
2021/09/06 05:28:34;;;;;;;13.10;10.35;;;;;;;20.11;53.83;102423.19;5039473;28;20112;-82
2021/09/06 05:31:03;;;;;;;16.15;11.48;;;;;;;20.25;54.47;102431.25;5004870;28;20060;-82
2021/09/06 05:33:29;;;;;;;11.63;10.00;;;;;;;20.24;54.12;102419.88;5021426;28;20024;-78
2021/09/06 05:35:54;;;;;;;10.80;8.50;;;;;;;20.31;54.01;102426.06;5037544;28;20053;-79
2021/09/06 05:38:19;;;;;;;13.18;9.70;;;;;;;20.37;54.28;102423.56;5021492;28;20059;-77
2021/09/06 05:40:45;;;;;;;12.73;9.95;;;;;;;20.32;53.95;102412.94;5037588;28;20421;-81
2021/09/06 05:43:10;;;;;;;12.63;9.73;;;;;;;20.49;54.41;102442.09;5020911;28;20032;-80
2021/09/06 05:45:35;;;;;;;15.98;8.90;;;;;;;20.46;54.34;102436.81;5037625;28;20033;-79
2021/09/06 05:48:01;;;;;;;11.38;9.35;;;;;;;20.44;54.10;102440.28;5020605;28;20052;-82
2021/09/06 05:50:26;;;;;;;12.82;8.95;;;;;;;20.50;54.38;102441.25;5021046;28;20399;-83
2021/09/06 05:52:52;;;;;;;11.15;9.25;;;;;;;20.44;54.20;102442.91;5004817;28;20028;-81
2021/09/06 05:55:17;;;;;;;11.82;9.95;;;;;;;20.49;54.19;102439.47;5020749;28;20025;-79
2021/09/06 05:57:43;;;;;;;13.52;10.63;;;;;;;20.46;54.48;102438.56;5020793;28;20032;-78
2021/09/06 06:00:09;;;;;;;10.57;9.20;;;;;;;20.52;54.54;102436.84;5020829;28;20032;-82
2021/09/06 06:02:35;;;;;;;11.55;8.73;;;;;;;20.50;54.67;102441.25;5020656;28;20029;-78
2021/09/06 06:05:01;;;;;;;12.50;9.13;;;;;;;20.62;54.51;102458.91;5037041;28;20029;-79
2021/09/06 06:07:26;;;;;;;11.90;8.90;;;;;;;20.52;54.42;102439.50;5037753;28;20040;-82
2021/09/06 06:09:53;;;;;;;11.13;8.40;;;;;;;20.55;54.67;102449.16;5036986;28;20021;-80
2021/09/06 06:12:19;;;;;;;10.27;7.93;;;;;;;20.61;54.53;102459.75;5020451;28;20033;-82
2021/09/06 06:14:44;;;;;;;10.75;8.25;;;;;;;20.57;54.71;102450.06;5036905;28;20541;-79
2021/09/06 06:17:10;;;;;;;8.82;7.55;;;;;;;20.55;54.76;102446.53;5036828;28;20103;-81
2021/09/06 06:19:35;;;;;;;12.10;8.57;;;;;;;20.59;55.27;102445.72;5020830;28;20040;-82
2021/09/06 06:22:01;;;;;;;10.43;8.95;;;;;;;20.71;54.72;102472.16;5036898;28;20352;-81
2021/09/06 06:24:26;;;;;;;15.00;8.55;;;;;;;20.73;54.89;102477.44;5020461;28;20033;-81
2021/09/06 06:26:51;;;;;;;12.25;9.05;;;;;;;20.65;54.75;102462.44;5054426;28;20067;-80
2021/09/06 06:29:17;;;;;;;15.07;7.70;;;;;;;20.63;54.89;102450.16;5036694;28;20467;-82
2021/09/06 06:31:42;;;;;;;11.60;7.85;;;;;;;20.78;55.05;102471.34;5036729;28;20076;-81
2021/09/06 06:34:08;;;;;;;9.32;7.97;;;;;;;20.70;54.94;102457.22;5036961;28;20036;-82
2021/09/06 06:36:33;;;;;;;10.80;7.45;;;;;;;20.71;55.12;102459.00;5036770;28;20021;-81
2021/09/06 06:38:59;;;;;;;8.88;6.68;;;;;;;20.72;55.04;102462.50;5036812;28;20112;-81
2021/09/06 06:41:24;;;;;;;13.68;8.10;;;;;;;20.72;55.21;102460.75;5036675;28;20019;-82
2021/09/06 06:43:49;;;;;;;10.45;8.10;;;;;;;20.88;55.21;102489.00;5036640;28;20040;-82
2021/09/06 06:46:17;;;;;;;9.10;7.78;;;;;;;20.83;55.06;102474.91;5003967;28;20060;-81
2021/09/06 06:48:42;;;;;;;9.30;7.75;;;;;;;20.81;55.27;102475.75;5027161;28;20037;-82
2021/09/06 06:51:08;;;;;;;8.00;6.18;;;;;;;20.78;55.35;102465.19;4999962;28;20033;-78
2021/09/06 06:53:33;;;;;;;8.65;7.75;;;;;;;20.81;55.17;102481.91;5000077;28;20064;-80
2021/09/06 06:55:59;;;;;;;8.75;7.70;;;;;;;20.78;55.34;102473.06;5016618;28;20075;-81
2021/09/06 06:58:25;;;;;;;11.65;7.75;;;;;;;20.81;55.40;102481.00;5000308;28;20030;-81
2021/09/06 07:00:51;;;;;;;9.75;7.38;;;;;;;20.78;55.40;102470.44;4984318;28;20026;-80
2021/09/06 07:03:16;;;;;;;9.95;7.85;;;;;;;20.74;55.42;102464.31;4983861;28;20029;-81
2021/09/06 07:05:42;;;;;;;8.23;7.03;;;;;;;20.91;55.54;102490.75;5000163;28;20084;-82
2021/09/06 07:08:07;;;;;;;9.95;7.35;;;;;;;20.82;55.57;102478.41;5033972;28;20467;-80
2021/09/06 07:10:32;;;;;;;8.38;7.15;;;;;;;20.87;55.83;102492.50;4983523;28;20120;-81
2021/09/06 07:12:58;;;;;;;9.82;7.45;;;;;;;20.91;55.67;102485.50;5016361;28;20028;-82
2021/09/06 07:15:24;;;;;;;8.88;7.15;;;;;;;20.87;55.45;102483.72;5016255;28;20021;-80
2021/09/06 07:17:49;;;;;;;8.15;7.35;;;;;;;20.98;55.39;102503.13;4999507;28;20033;-81
2021/09/06 07:20:14;;;;;;;8.02;6.03;;;;;;;20.87;55.47;102484.59;5016189;28;20032;-81
2021/09/06 07:22:40;;;;;;;8.27;7.45;;;;;;;20.94;55.56;102493.44;4983757;28;20033;-80
2021/09/06 07:25:06;;;;;;;9.65;7.95;;;;;;;20.91;55.56;102490.75;5000120;28;20060;-80
2021/09/06 07:27:31;;;;;;;10.75;7.38;;;;;;;20.96;55.31;102500.47;4999863;28;20034;-80
2021/09/06 07:29:57;;;;;;;9.35;6.80;;;;;;;20.96;55.70;102502.22;5016242;28;20383;-81
2021/09/06 07:32:22;;;;;;;8.32;7.28;;;;;;;21.04;55.63;102511.94;5033710;28;20439;-81
2021/09/06 07:34:48;;;;;;;8.32;6.97;;;;;;;20.98;55.54;102497.88;4983503;28;20025;-80
2021/09/06 07:37:13;;;;;;;7.85;6.88;;;;;;;20.97;55.39;102502.25;4983587;28;20026;-82
2021/09/06 07:39:39;;;;;;;9.75;7.35;;;;;;;20.95;55.34;102495.19;5016167;28;20120;-82
2021/09/06 07:42:04;;;;;;;10.18;7.35;;;;;;;21.04;55.55;102519.84;5016009;28;20021;-81
2021/09/06 07:44:30;;;;;;;8.52;7.28;;;;;;;21.03;55.59;102514.59;4999450;28;20033;-80
2021/09/06 07:46:56;;;;;;;7.60;6.57;;;;;;;21.07;55.67;102513.75;5015878;28;20033;-81
2021/09/06 07:49:22;;;;;;;8.82;7.88;;;;;;;21.14;55.54;102533.13;5042099;28;20060;-83
2021/09/06 07:51:52;;;;;;;8.60;7.57;;;;;;;21.08;55.60;102523.41;5051936;28;20501;-81
2021/09/06 07:54:22;;;;;;;7.20;6.30;;;;;;;21.02;55.57;102524.22;5036216;28;20079;-83
2021/09/06 07:56:50;;;;;;;9.40;7.85;;;;;;;21.06;55.70;102527.75;5035499;28;20036;-82
2021/09/06 07:59:16;;;;;;;9.90;7.95;;;;;;;21.09;55.59;102524.28;5035485;28;20021;-81
2021/09/06 08:01:45;;;;;;;9.95;7.38;;;;;;;21.21;55.30;102550.75;5035534;28;20429;-80
2021/09/06 08:04:12;;;;;;;10.35;7.15;;;;;;;21.07;55.47;102529.53;5036031;28;20032;-81
2021/09/06 08:06:38;;;;;;;8.75;6.85;;;;;;;21.03;55.62;102522.47;5018912;28;20021;-81
2021/09/06 08:09:04;;;;;;;10.02;7.47;;;;;;;21.05;55.60;102529.50;5051945;28;20031;-81
2021/09/06 08:11:29;;;;;;;7.85;6.65;;;;;;;21.20;55.60;102552.50;5035531;28;20120;-80
2021/09/06 08:13:55;;;;;;;9.43;7.38;;;;;;;21.22;55.53;102560.41;5035522;28;20037;-81
2021/09/06 08:16:21;;;;;;;8.73;7.22;;;;;;;21.11;55.58;102533.06;5035450;28;20036;-81
2021/09/06 08:18:49;;;;;;;9.60;7.90;;;;;;;21.18;55.62;102545.41;5051797;28;20025;-81
2021/09/06 08:21:14;;;;;;;8.25;7.18;;;;;;;21.24;55.75;102550.78;5035242;28;20029;-81
2021/09/06 08:23:40;;;;;;;9.00;6.93;;;;;;;21.18;55.72;102548.94;5035225;28;20471;-80
2021/09/06 08:26:06;;;;;;;8.30;7.35;;;;;;;21.17;55.49;102539.28;5019282;28;20116;-82
2021/09/06 08:28:32;;;;;;;8.20;6.72;;;;;;;21.19;55.50;102556.00;5051832;28;20021;-83
2021/09/06 08:51:04;;;;;;;8.45;6.78;;;;;;;21.18;55.82;102546.31;5010297;28;20061;-91
2021/09/06 09:34:21;;;;;;;7.63;6.78;;;;;;;21.35;55.77;102565.81;4895488;29;20057;-90
2021/09/06 09:47:00;;;;;;;7.93;6.88;;;;;;;21.24;56.00;102548.16;4866299;29;20037;-91
2021/09/06 09:53:10;;;;;;;9.23;7.10;;;;;;;21.09;55.95;102525.16;5468532;22;20064;-90
2021/09/06 09:55:40;;;;;;;7.25;6.38;;;;;;;21.32;55.95;102564.91;5073694;28;20035;-89
2021/09/06 09:58:06;;;;;;;6.78;6.05;;;;;;;21.07;55.78;102526.00;5073203;28;20088;-89
2021/09/06 10:00:33;;;;;;;8.45;6.63;;;;;;;21.35;55.94;102572.84;5072247;28;20028;-90
2021/09/06 10:03:11;;;;;;;8.57;6.75;;;;;;;21.11;55.83;102533.06;5072892;28;20020;-89
2021/09/06 10:05:48;;;;;;;7.72;6.63;;;;;;;21.07;55.90;102526.88;5072966;28;20445;-89
2021/09/06 10:08:20;;;;;;;7.38;6.65;;;;;;;21.21;56.15;102550.75;5072354;28;20031;-91
2021/09/06 10:10:46;;;;;;;7.75;6.55;;;;;;;21.35;55.92;102575.47;5056837;28;20025;-91
2021/09/06 10:13:17;;;;;;;7.47;6.68;;;;;;;21.07;55.99;102518.13;5075668;28;20070;-89
2021/09/06 10:16:03;;;;;;;7.53;6.57;;;;;;;21.15;55.90;102535.78;5072147;28;20027;-92
2021/09/06 10:18:41;;;;;;;7.63;6.40;;;;;;;21.33;55.97;102561.41;5068326;28;20108;-90
2021/09/06 10:21:15;;;;;;;6.75;5.93;;;;;;;21.10;55.75;102529.56;5072947;28;20020;-91
2021/09/06 10:24:20;;;;;;;7.72;6.43;;;;;;;21.35;55.84;102565.81;5072177;28;20050;-91
2021/09/06 11:01:16;;;;;;;6.78;5.82;;;;;;;21.12;55.76;102496.28;5312807;22;20048;-91
2021/09/06 11:03:42;;;;;;;8.93;6.30;;;;;;;21.20;55.66;102515.66;5053418;28;20482;-89
2021/09/06 11:06:10;;;;;;;7.38;5.90;;;;;;;21.38;55.69;102541.28;5052251;28;20044;-91
2021/09/06 11:08:37;;;;;;;7.43;6.72;;;;;;;21.29;55.78;102522.78;5052489;28;20035;-92
2021/09/06 11:11:05;;;;;;;7.90;5.85;;;;;;;21.22;55.69;102508.69;5051761;28;20092;-91
2021/09/06 11:13:45;;;;;;;7.05;6.35;;;;;;;21.10;55.64;102483.97;5035592;28;20037;-91
2021/09/06 11:16:13;;;;;;;7.15;5.95;;;;;;;21.37;55.96;102527.25;5052270;28;20016;-90
2021/09/06 11:18:41;;;;;;;6.20;5.40;;;;;;;21.11;55.72;102483.09;5052706;28;20032;-91
2021/09/06 11:21:07;;;;;;;9.32;6.78;;;;;;;21.22;55.63;102497.28;5051013;28;20023;-92
2021/09/06 11:23:38;;;;;;;6.60;5.82;;;;;;;21.20;55.89;102499.00;5051643;28;20036;-88
2021/09/06 11:26:06;;;;;;;8.45;7.30;;;;;;;21.11;56.11;102493.63;5050869;28;20021;-88
2021/09/06 11:28:32;;;;;;;7.25;6.05;;;;;;;21.09;55.83;102483.06;5051683;28;20035;-88
2021/09/06 11:35:02;;;;;;;6.75;6.05;;;;;;;21.34;55.96;102529.84;5069846;28;20055;-90
2021/09/06 12:51:59;;;;;;;7.90;6.50;;;;;;;21.41;55.75;102525.53;4952714;29;20071;-89
2021/09/06 13:45:23;;;;;;;6.97;6.28;;;;;;;21.38;55.83;102512.34;5077428;22;20061;-91
2021/09/06 13:47:49;;;;;;;6.90;5.82;;;;;;;21.51;56.18;102527.38;5054587;28;20060;-90
2021/09/06 13:50:15;;;;;;;6.32;5.22;;;;;;;21.35;55.99;102497.41;5055350;28;20009;-90
2021/09/06 13:52:41;;;;;;;6.35;5.68;;;;;;;21.60;55.89;102531.84;5056976;28;20107;-90
2021/09/06 13:55:07;;;;;;;5.97;5.03;;;;;;;21.49;56.00;102510.69;5057160;28;20025;-91
2021/09/06 13:57:32;;;;;;;5.82;4.72;;;;;;;21.37;56.11;102490.41;5057467;28;20033;-90
2021/09/06 13:59:58;;;;;;;6.97;5.78;;;;;;;21.38;55.89;102486.03;5057250;28;20088;-89
2021/09/06 14:02:26;;;;;;;7.20;5.68;;;;;;;21.49;55.82;102497.53;5054208;28;20017;-90
2021/09/06 14:04:55;;;;;;;7.32;5.70;;;;;;;21.36;56.05;102474.59;5053935;28;20032;-91
2021/09/06 14:07:21;;;;;;;5.88;5.20;;;;;;;21.64;56.06;102528.38;5053696;28;20017;-90
2021/09/06 14:09:46;;;;;;;7.38;5.75;;;;;;;21.67;56.29;102531.03;5054511;28;20028;-89
2021/09/06 14:12:15;;;;;;;6.85;6.15;;;;;;;21.44;55.93;102486.06;5054293;28;20025;-89
2021/09/06 14:14:43;;;;;;;6.40;5.75;;;;;;;21.45;55.83;102495.72;5053894;28;20020;-90
2021/09/06 14:17:09;;;;;;;7.50;6.30;;;;;;;21.44;55.90;102485.19;5039969;28;20036;-91
2021/09/06 14:19:35;;;;;;;8.05;6.80;;;;;;;21.64;56.02;102518.72;5057007;28;20033;-89
2021/09/06 14:22:01;;;;;;;7.07;6.10;;;;;;;21.46;56.14;102483.44;5056703;28;20028;-89
2021/09/06 14:24:31;;;;;;;7.45;6.40;;;;;;;21.51;55.95;102481.75;5056313;28;20437;-91
2021/09/06 14:26:58;;;;;;;6.22;5.18;;;;;;;21.51;56.14;102479.13;5036639;28;20446;-91
2021/09/06 14:29:23;;;;;;;7.07;6.00;;;;;;;21.65;55.79;102504.69;5053772;28;20048;-89
2021/09/06 14:31:49;;;;;;;7.55;6.13;;;;;;;21.49;56.00;102473.84;5053351;28;20036;-90
2021/09/06 14:34:17;;;;;;;6.72;5.95;;;;;;;21.49;57.05;102470.31;5036876;28;20498;-90
2021/09/06 14:36:51;;;;;;;5.65;5.00;;;;;;;21.57;55.96;102484.41;5035253;28;20021;-91
2021/09/06 14:39:17;;;;;;;;;;;;;;;21.79;56.78;102523.25;5555455;22;20053;-82
2021/09/06 14:41:43;;;;;;;8.82;6.03;;;;;;;21.68;55.89;102504.69;5018318;28;19991;-79
2021/09/06 14:44:08;;;;;;;8.60;6.13;;;;;;;21.70;55.40;102491.53;5019319;28;20014;-79
2021/09/06 15:07:19;;;;;;;10.82;8.32;;;;;;;22.06;54.94;102519.97;4972391;29;20041;-90
2021/09/06 15:17:01;;;;;;;13.95;9.38;;;;;;;21.97;54.96;102478.56;4936644;28;20035;-91
2021/09/06 15:29:03;;;;;;;13.27;8.70;;;;;;;21.70;55.74;102452.94;5439468;23;20082;-89
2021/09/06 15:31:52;;;;;;;9.75;8.15;;;;;;;21.75;55.70;102464.38;5075072;28;20044;-90
2021/09/06 15:34:23;;;;;;;9.30;8.05;;;;;;;21.80;55.95;102477.59;5076499;28;20108;-91
2021/09/06 15:36:52;;;;;;;8.80;7.85;;;;;;;21.66;56.17;102451.16;5074652;28;20025;-91
2021/09/06 15:39:18;;;;;;;8.57;7.18;;;;;;;21.61;55.95;102438.81;5078123;28;20051;-88
2021/09/06 15:41:52;;;;;;;9.70;8.25;;;;;;;21.61;55.88;102434.44;5079345;28;20028;-90
2021/09/06 15:44:37;;;;;;;11.90;8.52;;;;;;;21.87;56.05;102466.22;5081398;28;20031;-91
2021/09/06 15:47:05;;;;;;;8.75;7.38;;;;;;;21.58;56.08;102421.25;5079309;28;20012;-90
2021/09/06 15:49:31;;;;;;;9.52;7.82;;;;;;;21.61;55.92;102425.66;5062952;28;20041;-92
2021/09/06 15:51:57;;;;;;;8.00;7.18;;;;;;;21.83;55.96;102464.44;5080129;28;20051;-90
2021/09/06 15:54:25;;;;;;;9.30;7.75;;;;;;;21.57;56.29;102415.97;5079463;28;20051;-90
2021/09/06 15:56:53;;;;;;;10.88;7.95;;;;;;;21.79;56.25;102453.88;5079826;28;20024;-89
2021/09/06 15:59:19;;;;;;;9.20;7.68;;;;;;;21.59;56.19;102417.75;5079999;28;20028;-91
2021/09/06 16:01:47;;;;;;;7.05;6.30;;;;;;;21.63;56.20;102424.81;5079204;28;20103;-90
2021/09/06 16:04:13;;;;;;;8.27;7.15;;;;;;;21.56;56.66;102415.09;5079708;28;20012;-91
2021/09/06 16:06:39;;;;;;;8.52;7.63;;;;;;;21.54;56.55;102416.84;5079516;28;20033;-90
2021/09/06 16:09:05;;;;;;;8.30;7.35;;;;;;;21.51;56.34;102406.31;5080160;28;20071;-90
2021/09/06 16:11:31;;;;;;;8.65;6.20;;;;;;;21.59;56.28;102427.41;5079247;28;20051;-88
2021/09/06 16:13:59;;;;;;;9.80;8.07;;;;;;;21.76;56.45;102457.38;5079945;28;20008;-91
2021/09/06 16:16:25;;;;;;;10.48;7.18;;;;;;;21.51;56.76;102421.22;5079517;28;20040;-90
2021/09/06 16:18:51;;;;;;;7.80;6.70;;;;;;;21.71;56.57;102456.44;5078912;28;20025;-91
2021/09/06 16:21:20;;;;;;;6.88;6.18;;;;;;;21.54;56.43;102424.75;5079196;28;20031;-92
2021/09/06 16:23:48;;;;;;;10.38;6.80;;;;;;;21.77;56.53;102463.53;5079543;28;20021;-90
2021/09/06 16:26:18;;;;;;;7.22;6.20;;;;;;;21.50;56.60;102428.22;5075466;28;20025;-91
2021/09/06 16:28:44;;;;;;;10.80;9.23;;;;;;;21.50;57.58;102436.13;5076629;28;20101;-91
2021/09/06 16:31:12;;;;;;;15.80;11.80;;;;;;;21.46;56.79;102431.69;5060229;28;20032;-89
2021/09/06 16:33:38;;;;;;;18.92;13.65;;;;;;;21.72;55.99;102472.25;5059526;28;20031;-90
2021/09/06 16:36:11;;;;;;;16.08;11.95;;;;;;;21.49;56.26;102421.19;5059250;28;20045;-91
2021/09/06 16:38:37;;;;;;;18.27;13.07;;;;;;;21.58;56.14;102430.91;5050263;28;20025;-86
2021/09/06 16:41:03;;;;;;;16.55;13.45;;;;;;;21.62;56.37;102443.22;5044972;28;20032;-88
2021/09/06 16:43:31;;;;;;;20.75;14.40;;;;;;;21.47;56.25;102416.78;5055806;28;20059;-90
2021/09/06 16:45:57;;;;;;;19.38;13.32;;;;;;;21.63;55.92;102447.63;5045340;28;20021;-89
2021/09/06 16:48:22;;;;;;;18.60;14.23;;;;;;;21.53;56.07;102437.91;5042216;28;20035;-88
2021/09/06 16:50:49;;;;;;;19.27;13.15;;;;;;;21.51;56.38;102430.00;5027373;28;20544;-81
2021/09/06 16:53:16;;;;;;;28.27;14.70;;;;;;;21.66;56.93;102450.28;5026840;28;20459;-85
2021/09/06 17:22:13;;;;;;;22.88;14.13;;;;;;;21.56;56.42;102453.69;5108056;22;20415;-89
2021/09/06 17:29:49;;;;;;;15.65;12.40;;;;;;;21.43;56.44;102439.56;5545315;22;21138;-84
2021/09/06 17:35:37;;;;;;;17.48;13.80;;;;;;;21.40;56.29;102434.28;5111637;28;20038;-82
2021/09/06 17:38:03;;;;;;;16.10;13.65;;;;;;;21.55;56.23;102455.44;5080175;28;20032;-85
2021/09/06 17:40:28;;;;;;;17.58;14.13;;;;;;;21.49;56.09;102452.78;5046302;28;20030;-86
2021/09/06 17:42:54;;;;;;;18.15;13.68;;;;;;;21.59;56.46;102459.88;5079982;28;20367;-79
2021/09/06 17:45:19;;;;;;;18.05;15.10;;;;;;;21.59;56.01;102457.25;5044945;28;20119;-81
2021/09/06 17:47:45;;;;;;;21.02;15.45;;;;;;;21.58;55.80;102455.47;5045465;28;20054;-85
2021/09/06 17:50:10;;;;;;;21.63;16.13;;;;;;;21.48;56.02;102443.13;5061817;28;20024;-79
2021/09/06 17:52:36;;;;;;;20.83;15.80;;;;;;;21.36;56.32;102421.97;5061770;28;20036;-80
2021/09/06 17:55:02;;;;;;;22.83;15.93;;;;;;;21.49;56.35;102447.53;5061637;28;20020;-84
2021/09/06 17:57:28;;;;;;;18.73;15.43;;;;;;;21.50;56.37;102446.66;5078602;28;20036;-81
2021/09/06 17:59:53;;;;;;;17.13;12.93;;;;;;;21.61;56.52;102460.78;5061248;28;20035;-80
2021/09/06 18:02:18;;;;;;;17.10;14.10;;;;;;;21.50;56.37;102446.66;5077424;28;20035;-81
2021/09/06 18:04:44;;;;;;;16.23;14.43;;;;;;;21.61;56.37;102471.31;5060947;28;20024;-80
2021/09/06 18:07:09;;;;;;;28.23;17.13;;;;;;;21.53;56.38;102467.75;5061032;28;20074;-80
2021/09/06 18:09:35;;;;;;;22.98;17.27;;;;;;;21.57;56.63;102473.88;5045396;28;20028;-80
2021/09/06 18:12:00;;;;;;;21.90;15.45;;;;;;;21.49;56.67;102460.69;5075682;28;20022;-82
2021/09/06 18:14:25;;;;;;;23.00;16.27;;;;;;;21.46;56.58;102458.00;5071833;28;20082;-80
2021/09/06 18:16:53;;;;;;;20.20;15.13;;;;;;;21.59;57.15;102469.53;5080686;28;20043;-77
2021/09/06 18:19:18;;;;;;;31.63;15.73;;;;;;;21.61;56.85;102470.41;5078584;28;20104;-89
2021/09/06 18:21:44;;;;;;;21.05;14.75;;;;;;;21.35;56.82;102436.00;5079134;28;20020;-89
2021/09/06 18:24:11;;;;;;;16.33;14.23;;;;;;;21.53;56.64;102453.69;5075032;28;20056;-90
2021/09/06 18:26:37;;;;;;;16.90;13.18;;;;;;;21.38;56.62;102436.03;5093783;28;20051;-90
2021/09/06 18:29:03;;;;;;;19.23;13.93;;;;;;;21.38;56.75;102428.13;5094366;28;20067;-88
2021/09/06 18:31:28;;;;;;;17.52;13.00;;;;;;;21.40;56.73;102436.94;5092424;28;20047;-89
2021/09/06 18:33:54;;;;;;;17.42;12.88;;;;;;;21.48;56.90;102453.66;5091877;28;20027;-87
2021/09/06 18:36:19;;;;;;;19.02;15.38;;;;;;;21.54;56.96;102472.13;5087261;28;20031;-87
2021/09/06 18:38:45;;;;;;;17.65;12.65;;;;;;;21.43;56.84;102442.19;5090815;28;20035;-90
2021/09/06 18:41:10;;;;;;;21.95;12.43;;;;;;;21.59;56.87;102473.03;5090217;28;20020;-87
2021/09/06 18:43:36;;;;;;;18.75;12.65;;;;;;;21.36;56.73;102443.03;5069857;28;20023;-89
2021/09/06 18:46:04;;;;;;;13.18;11.77;;;;;;;21.55;56.82;102478.28;5086047;28;20050;-87
2021/09/06 18:48:30;;;;;;;17.08;11.18;;;;;;;21.36;56.99;102449.16;5086150;28;20474;-88
2021/09/06 18:50:56;;;;;;;14.75;10.90;;;;;;;21.48;56.81;102479.09;5084298;28;20032;-89
2021/09/06 18:53:22;;;;;;;16.17;12.73;;;;;;;21.52;56.88;102480.88;5084503;28;20046;-87
2021/09/06 18:55:48;;;;;;;15.77;11.80;;;;;;;21.38;56.80;102457.09;5083196;28;20469;-87
2021/09/06 18:58:13;;;;;;;13.63;11.57;;;;;;;21.38;56.96;102464.97;5080877;28;20087;-88
2021/09/06 19:00:39;;;;;;;13.43;11.15;;;;;;;21.40;57.00;102465.88;5081482;28;20028;-88
2021/09/06 19:03:06;;;;;;;13.55;11.80;;;;;;;21.42;57.21;102472.03;5080742;28;20034;-85
2021/09/06 19:05:31;;;;;;;14.82;10.10;;;;;;;21.41;57.03;102464.13;5063787;28;20078;-89
2021/09/06 19:07:57;;;;;;;14.98;10.95;;;;;;;21.55;56.87;102488.81;5079179;28;20111;-83
2021/09/06 19:10:22;;;;;;;14.35;11.00;;;;;;;21.52;57.06;102480.88;5063041;28;20392;-83
2021/09/06 19:12:48;;;;;;;16.00;10.95;;;;;;;21.47;57.11;102469.44;5065840;28;20054;-88
2021/09/06 19:15:14;;;;;;;16.45;11.88;;;;;;;21.53;56.95;102488.81;5080027;28;20027;-86
2021/09/06 19:17:39;;;;;;;13.75;10.05;;;;;;;21.51;57.14;102487.91;5080758;28;20024;-87
2021/09/06 19:20:06;;;;;;;14.20;11.00;;;;;;;21.37;57.00;102463.22;5081936;28;20027;-86
2021/09/06 19:22:32;;;;;;;10.68;9.57;;;;;;;21.40;56.94;102471.13;5080746;28;20428;-82
2021/09/06 19:24:57;;;;;;;11.48;10.27;;;;;;;21.60;57.15;102502.88;5063314;28;20024;-85
2021/09/06 19:27:23;;;;;;;12.48;9.63;;;;;;;21.50;56.93;102491.41;5079607;28;20023;-85
2021/09/06 19:29:49;;;;;;;14.82;11.07;;;;;;;21.50;57.06;102496.66;5063090;28;20066;-87
2021/09/06 19:32:15;;;;;;;14.18;10.23;;;;;;;21.51;57.02;102503.69;5081540;28;20104;-87
2021/09/06 19:34:42;;;;;;;11.95;8.98;;;;;;;21.59;57.13;102520.44;5082879;28;20020;-90
2021/09/06 19:37:08;;;;;;;12.77;9.77;;;;;;;21.48;57.08;102495.75;5083791;28;20027;-87
2021/09/06 19:39:33;;;;;;;14.48;10.10;;;;;;;21.34;57.04;102485.09;5063939;28;20031;-89
2021/09/06 19:41:59;;;;;;;13.13;10.00;;;;;;;21.43;56.94;102488.69;5081038;28;20021;-86
2021/09/06 19:44:24;;;;;;;12.40;10.02;;;;;;;21.49;57.14;102504.53;5062504;28;20394;-83
2021/09/06 19:46:51;;;;;;;15.13;11.75;;;;;;;21.36;57.14;102491.28;5063828;28;20051;-85
2021/09/06 19:49:17;;;;;;;12.23;10.40;;;;;;;21.61;57.25;102536.25;5080928;28;20020;-87
2021/09/06 19:51:43;;;;;;;11.75;9.82;;;;;;;21.48;57.02;102515.94;5080727;28;20447;-89
2021/09/06 19:54:09;;;;;;;12.20;9.77;;;;;;;21.51;57.04;102526.50;5064767;28;20111;-89
2021/09/06 19:56:38;;;;;;;11.45;9.27;;;;;;;21.46;57.25;102515.91;5064819;28;20109;-87
2021/09/06 19:59:06;;;;;;;11.27;9.52;;;;;;;21.44;57.09;102511.50;5078391;28;20028;-91
2021/09/06 20:01:32;;;;;;;11.88;9.63;;;;;;;21.49;57.00;102526.47;5088320;28;20521;-89
2021/09/06 20:03:58;;;;;;;12.27;9.65;;;;;;;21.39;57.20;102508.84;5069207;28;20035;-90
2021/09/06 20:06:24;;;;;;;11.15;9.65;;;;;;;21.49;56.98;102533.50;5082664;28;20024;-89
2021/09/06 20:12:12;;;;;;;11.43;8.93;;;;;;;21.35;57.02;102512.31;5098437;28;20082;-88
2021/09/06 20:14:38;;;;;;;14.13;9.75;;;;;;;21.44;57.01;102530.81;5063357;28;20028;-88
2021/09/06 20:17:04;;;;;;;10.85;8.65;;;;;;;21.54;57.00;102547.59;5082001;28;20061;-89
2021/09/06 20:20:08;;;;;;;13.38;10.18;;;;;;;21.57;56.93;102559.00;5081123;28;20058;-87
2021/09/06 20:22:37;;;;;;;15.40;8.98;;;;;;;21.41;56.90;102540.44;5096641;28;20474;-88
2021/09/06 20:25:04;;;;;;;10.60;9.45;;;;;;;21.50;56.97;102554.56;5101008;28;20028;-88
2021/09/06 20:27:30;;;;;;;9.43;8.43;;;;;;;21.58;56.90;102558.16;5082526;28;20043;-84
2021/09/06 20:29:57;;;;;;;10.40;8.25;;;;;;;21.50;56.73;102553.69;5082494;28;20055;-86
2021/09/06 20:32:23;;;;;;;11.98;8.52;;;;;;;21.41;56.86;102549.22;5082255;28;20082;-86
2021/09/06 20:34:49;;;;;;;10.32;9.32;;;;;;;21.34;56.85;102539.50;5066521;28;20085;-89
2021/09/06 20:37:17;;;;;;;10.40;9.02;;;;;;;21.33;56.89;102530.72;5102072;28;20062;-88
2021/09/06 20:39:43;;;;;;;11.25;8.80;;;;;;;21.44;56.82;102549.22;5084617;28;20027;-88
2021/09/06 20:45:42;;;;;;;9.30;8.30;;;;;;;21.37;56.67;102526.38;5104254;28;20031;-88
2021/09/06 20:51:35;;;;;;;9.65;8.68;;;;;;;21.55;56.84;102552.84;5104755;28;20061;-90
2021/09/06 20:57:25;;;;;;;9.25;8.27;;;;;;;21.42;56.70;102508.00;5080334;28;20517;-90
2021/09/06 20:59:52;;;;;;;10.88;8.60;;;;;;;21.52;57.09;102529.16;5078039;28;20037;-87
2021/09/06 21:02:20;;;;;;;9.95;9.02;;;;;;;21.39;56.81;102508.84;5080312;28;20402;-87